Time;durP1;ratioP1;P1;durP2;ratioP2;P2;SDS_P1;SDS_P2;PMS_P1;PMS_P2;Temp;Humidity;BMP_temperature;BMP_pressure;BME280_temperature;BME280_humidity;BME280_pressure;Samples;Min_cycle;Max_cycle;Signal;HPM_P1;HPM_P2
2024/03/15 00:01:25;;;;;;;;;;;;;;;2.32;100.00;100818.48;109457;1254;60934;-54
2024/03/15 00:03:53;;;;;;;;;;;;;;;2.33;100.00;100817.16;109467;1250;59867;-56
2024/03/15 00:06:20;;;;;;;;;;;;;;;2.33;100.00;100817.13;109489;1250;75877;-55
2024/03/15 00:08:49;;;;;;;;;;;;;;;2.33;100.00;100811.31;109543;1250;66970;-59
2024/03/15 00:11:16;;;;;;;;;;;;;;;2.33;100.00;100811.50;109507;1251;72738;-55
2024/03/15 00:13:44;;;;;;;;;;;;;;;2.34;100.00;100811.23;109480;1251;60811;-54
2024/03/15 00:16:12;;;;;;;;;;;;;;;2.34;100.00;100812.56;109467;1251;58881;-55
2024/03/15 00:18:40;;;;;;;;;;;;;;;2.34;100.00;100805.90;109497;1251;73763;-54
2024/03/15 00:21:07;;;;;;;;;;;;;;;2.35;100.00;100810.48;109474;1250;66885;-55
2024/03/15 00:23:35;;;;;;;;;;;;;;;2.36;100.00;100807.16;109552;1251;72716;-56
2024/03/15 00:26:02;;;;;;;;;;;;;;;2.37;100.00;100808.14;109464;1250;59684;-55
2024/03/15 00:28:30;;;;;;;;;;;;;;;2.37;100.00;100810.16;109444;1251;59450;-55
2024/03/15 00:30:57;;;;;;;;;;;;;;;2.37;100.00;100814.59;109383;1251;77013;-58
2024/03/15 00:33:25;;;;;;;;;;;;;;;2.37;100.00;100813.91;109456;1251;67359;-54
2024/03/15 00:35:52;;;;;;;;;;;;;;;2.38;100.00;100816.05;109510;1251;72831;-55
2024/03/15 00:38:20;;;;;;;;;;;;;;;2.38;100.00;100821.20;109495;1250;59980;-54
2024/03/15 00:40:47;;;;;;;;;;;;;;;2.40;100.00;100819.51;109554;1251;58992;-54
2024/03/15 00:43:16;;;;;;;;;;;;;;;2.41;100.00;100817.17;109437;1251;73459;-58
2024/03/15 00:45:44;;;;;;;;;;;;;;;2.43;100.00;100815.53;109551;1253;66975;-55
2024/03/15 00:48:11;;;;;;;;;;;;;;;2.44;100.00;100816.48;109560;1251;71419;-55
2024/03/15 00:50:41;;;;;;;;;;;;;;;2.45;100.00;100813.52;109422;1253;61341;-55
2024/03/15 00:53:08;;;;;;;;;;;;;;;2.47;100.00;100815.59;109529;1251;59925;-55
2024/03/15 00:55:36;;;;;;;;;;;;;;;2.49;100.00;100817.67;109487;1251;73403;-59
2024/03/15 00:58:05;;;;;;;;;;;;;;;2.51;100.00;100815.41;109488;1251;65809;-55
2024/03/15 01:00:34;;;;;;;;;;;;;;;2.53;100.00;100811.52;109510;1251;72732;-55
2024/03/15 01:03:02;;;;;;;;;;;;;;;2.54;100.00;100810.58;109506;1251;61093;-54
2024/03/15 01:05:29;;;;;;;;;;;;;;;2.56;100.00;100809.75;109502;1251;59048;-55
2024/03/15 01:07:57;;;;;;;;;;;;;;;2.57;100.00;100808.83;109442;1251;74234;-54
2024/03/15 01:10:25;;;;;;;;;;;;;;;2.56;100.00;100810.75;109511;1251;67001;-54
2024/03/15 01:12:53;;;;;;;;;;;;;;;2.56;100.00;100805.30;109488;1253;72619;-54
2024/03/15 01:15:20;;;;;;;;;;;;;;;2.56;100.00;100806.50;109459;1251;61447;-55
2024/03/15 01:17:48;;;;;;;;;;;;;;;2.56;100.00;100806.48;109482;1251;59854;-55
2024/03/15 01:20:15;;;;;;;;;;;;;;;2.57;100.00;100807.61;109495;1250;74704;-54
2024/03/15 01:22:44;;;;;;;;;;;;;;;2.56;100.00;100808.39;109519;1251;67549;-54
2024/03/15 01:25:12;;;;;;;;;;;;;;;2.56;100.00;100807.17;109490;1251;73126;-54
2024/03/15 01:27:39;;;;;;;;;;;;;;;2.55;100.00;100804.63;109475;1253;61365;-54
2024/03/15 01:30:10;;;;;;;;;;;;;;;2.55;100.00;100809.42;109506;1251;59252;-55
2024/03/15 01:32:37;;;;;;;;;;;;;;;2.57;100.00;100803.99;109542;1251;74797;-54
2024/03/15 01:35:05;;;;;;;;;;;;;;;2.58;100.00;100802.21;109485;1251;66921;-54
2024/03/15 01:37:33;;;;;;;;;;;;;;;2.58;100.00;100803.59;109538;1251;71137;-54
2024/03/15 01:40:00;;;;;;;;;;;;;;;2.58;100.00;100801.66;109468;1251;59692;-54
2024/03/15 01:42:27;;;;;;;;;;;;;;;2.60;100.00;100801.02;109509;1251;59049;-54
2024/03/15 01:44:55;;;;;;;;;;;;;;;2.61;100.00;100801.09;109530;1252;74669;-54
2024/03/15 01:47:26;;;;;;;;;;;;;;;2.61;100.00;100800.05;109519;1251;66919;-54
2024/03/15 01:49:57;;;;;;;;;;;;;;;2.63;100.00;100799.59;109456;1251;72709;-57
2024/03/15 01:52:25;;;;;;;;;;;;;;;2.64;100.00;100795.16;109315;1253;205187;-54
2024/03/15 01:55:28;;;;;;;;;;;;;;;2.68;100.00;100793.54;102515;1295;599394;-57
2024/03/15 01:58:00;;;;;;;;;;;;;;;2.67;100.00;100792.56;104675;1269;59663;-53
2024/03/15 02:00:27;;;;;;;;;;;;;;;2.68;100.00;100794.71;104985;1263;59747;-53
2024/03/15 02:02:56;;;;;;;;;;;;;;;2.67;100.00;100795.14;105294;1262;73057;-53
2024/03/15 02:05:24;;;;;;;;;;;;;;;2.68;100.00;100793.70;105359;1257;66062;-55
2024/03/15 02:07:52;;;;;;;;;;;;;;;2.68;100.00;100793.00;105057;1258;403243;-55
2024/03/15 02:10:20;;;;;;;;;;;;;;;2.67;100.00;100790.81;105432;1255;60932;-54
2024/03/15 02:12:49;;;;;;;;;;;;;;;2.67;100.00;100787.94;105579;1256;59837;-53
2024/03/15 02:15:17;;;;;;;;;;;;;;;2.67;100.00;100784.14;105592;1258;73076;-54
2024/03/15 02:17:44;;;;;;;;;;;;;;;2.67;100.00;100783.33;105636;1257;68324;-58
2024/03/15 02:20:12;;;;;;;;;;;;;;;2.66;100.00;100784.55;105303;1256;72038;-53
2024/03/15 02:22:39;;;;;;;;;;;;;;;2.66;100.00;100784.90;105462;1256;60878;-54
2024/03/15 02:25:07;;;;;;;;;;;;;;;2.66;100.00;100782.55;105621;1257;60532;-55
2024/03/15 02:27:35;;;;;;;;;;;;;;;2.66;100.00;100784.78;105336;1261;73876;-54
2024/03/15 02:30:03;;;;;;;;;;;;;;;2.66;100.00;100787.85;105701;1257;65775;-54
2024/03/15 02:32:31;;;;;;;;;;;;;;;2.67;100.00;100787.23;105586;1260;72704;-53
2024/03/15 02:34:58;;;;;;;;;;;;;;;2.69;100.00;100787.30;105531;1257;60900;-54
2024/03/15 02:37:31;;;;;;;;;;;;;;;2.70;100.00;100788.13;105469;1257;60523;-54
2024/03/15 02:39:59;;;;;;;;;;;;;;;2.70;100.00;100786.92;105474;1256;72887;-58
2024/03/15 02:42:27;;;;;;;;;;;;;;;2.70;100.00;100785.70;105520;1257;67602;-54
2024/03/15 02:44:54;;;;;;;;;;;;;;;2.71;100.00;100782.55;105527;1257;72710;-54
2024/03/15 02:47:25;;;;;;;;;;;;;;;2.71;100.00;100780.11;105426;1260;60309;-53
2024/03/15 02:49:55;;;;;;;;;;;;;;;2.72;100.00;100780.17;105467;1260;60306;-58
2024/03/15 02:52:23;;;;;;;;;;;;;;;2.72;100.00;100781.36;105555;1258;74444;-53
2024/03/15 02:54:51;;;;;;;;;;;;;;;2.72;100.00;100780.67;105752;1255;65539;-55
2024/03/15 02:57:18;;;;;;;;;;;;;;;2.72;100.00;100778.48;105753;1251;72654;-54
2024/03/15 02:59:46;;;;;;;;;;;;;;;2.71;100.00;100778.76;106082;1251;61020;-56
2024/03/15 03:02:14;;;;;;;;;;;;;;;2.71;100.00;100786.31;105599;1257;60411;-55
2024/03/15 03:04:41;;;;;;;;;;;;;;;2.71;100.00;100785.45;105916;1251;73915;-55
2024/03/15 03:07:09;;;;;;;;;;;;;;;2.71;100.00;100783.23;105583;1256;65654;-55
2024/03/15 03:09:36;;;;;;;;;;;;;;;2.68;100.00;100784.72;105717;1256;72715;-55
2024/03/15 03:12:04;;;;;;;;;;;;;;;2.69;100.00;100788.33;108500;1253;60549;-56
2024/03/15 03:14:33;;;;;;;;;;;;;;;2.69;100.00;100786.44;107376;1251;60428;-55
2024/03/15 03:17:03;;;;;;;;;;;;;;;2.72;100.00;100790.70;105827;1254;73924;-55
2024/03/15 03:19:31;;;;;;;;;;;;;;;2.72;100.00;100788.05;105756;1251;66786;-54
2024/03/15 03:21:59;;;;;;;;;;;;;;;2.73;100.00;100792.13;105786;1257;72796;-55
2024/03/15 03:24:27;;;;;;;;;;;;;;;2.74;100.00;100790.56;105800;1256;60536;-55
2024/03/15 03:26:54;;;;;;;;;;;;;;;2.74;100.00;100791.56;105841;1251;60341;-54
2024/03/15 03:29:22;;;;;;;;;;;;;;;2.73;100.00;100792.80;105837;1251;73862;-54
2024/03/15 03:31:50;;;;;;;;;;;;;;;2.73;100.00;100791.11;105911;1251;66808;-55
2024/03/15 03:34:17;;;;;;;;;;;;;;;2.72;100.00;100793.05;105909;1254;72826;-54
2024/03/15 03:36:45;;;;;;;;;;;;;;;2.72;100.00;100795.30;105829;1251;60596;-56
2024/03/15 03:39:13;;;;;;;;;;;;;;;2.72;100.00;100797.88;106943;1251;60448;-54
2024/03/15 03:41:41;;;;;;;;;;;;;;;2.72;100.00;100799.30;105953;1255;73108;-54
2024/03/15 03:44:10;;;;;;;;;;;;;;;2.72;100.00;100800.13;105858;1255;67529;-55
2024/03/15 03:46:38;;;;;;;;;;;;;;;2.73;100.00;100797.29;106021;1251;72491;-55
2024/03/15 03:49:05;;;;;;;;;;;;;;;2.74;100.00;100800.15;105877;1251;60890;-54
2024/03/15 03:51:34;;;;;;;;;;;;;;;2.75;100.00;100798.85;105497;1251;59835;-55
2024/03/15 03:54:02;;;;;;;;;;;;;;;2.74;100.00;100799.26;105835;1251;72603;-55
2024/03/15 03:56:30;;;;;;;;;;;;;;;2.74;100.00;100799.98;105813;1252;67157;-54
2024/03/15 03:58:59;;;;;;;;;;;;;;;2.74;100.00;100799.98;105792;1251;72662;-54
2024/03/15 04:01:27;;;;;;;;;;;;;;;2.74;100.00;100803.44;105981;1257;60619;-55
2024/03/15 04:03:54;;;;;;;;;;;;;;;2.74;100.00;100803.24;106067;1250;60421;-59
2024/03/15 04:06:22;;;;;;;;;;;;;;;2.75;100.00;100806.96;105595;1257;73936;-54
2024/03/15 04:08:49;;;;;;;;;;;;;;;2.76;100.00;100808.88;105777;1252;65675;-54
2024/03/15 04:11:17;;;;;;;;;;;;;;;2.77;100.00;100807.11;106006;1251;73170;-54
2024/03/15 04:13:44;;;;;;;;;;;;;;;2.78;100.00;100804.96;106157;1254;60932;-54
2024/03/15 04:16:12;;;;;;;;;;;;;;;2.81;100.00;100803.74;105447;1251;60531;-54
2024/03/15 04:18:40;;;;;;;;;;;;;;;2.82;100.00;100802.60;105740;1257;73867;-54
2024/03/15 04:21:10;;;;;;;;;;;;;;;2.83;100.00;100805.44;105744;1254;65758;-55
2024/03/15 04:23:38;;;;;;;;;;;;;;;2.84;100.00;100805.00;105820;1257;71388;-53
2024/03/15 04:26:05;;;;;;;;;;;;;;;2.84;100.00;100802.92;105640;1257;60391;-54
2024/03/15 04:28:34;;;;;;;;;;;;;;;2.86;100.00;100800.20;105636;1256;60795;-55
2024/03/15 04:31:05;;;;;;;;;;;;;;;2.86;100.00;100801.90;105889;1252;72647;-54
2024/03/15 04:33:33;;;;;;;;;;;;;;;2.88;100.00;100805.91;105642;1254;66883;-55
2024/03/15 04:36:04;;;;;;;;;;;;;;;2.87;100.00;100802.85;105751;1254;72739;-55
2024/03/15 04:38:32;;;;;;;;;;;;;;;2.89;100.00;100802.39;105907;1257;60540;-54
2024/03/15 04:41:09;;;;;;;;;;;;;;;2.91;100.00;100797.26;105711;1257;60428;-54
2024/03/15 04:50:57;;;;;;;;;;;;;;;2.97;100.00;100794.73;102433;1297;599250;-55
2024/03/15 04:53:25;;;;;;;;;;;;;;;2.93;100.00;100793.60;104816;1267;59679;-54
2024/03/15 04:55:52;;;;;;;;;;;;;;;2.93;100.00;100800.65;104985;1267;60018;-59
2024/03/15 04:58:21;;;;;;;;;;;;;;;2.93;100.00;100805.66;104884;1269;73124;-55
2024/03/15 05:00:50;;;;;;;;;;;;;;;2.93;100.00;100806.53;104917;1268;65762;-55
2024/03/15 05:03:17;;;;;;;;;;;;;;;2.94;100.00;100809.87;104924;1267;72772;-55
2024/03/15 05:05:45;;;;;;;;;;;;;;;2.96;100.00;100810.60;104788;1267;215494;-54
2024/03/15 05:08:12;;;;;;;;;;;;;;;2.97;100.00;100813.08;104981;1267;59612;-55
2024/03/15 05:10:40;;;;;;;;;;;;;;;2.99;100.00;100814.01;104917;1263;72075;-54
2024/03/15 05:13:07;;;;;;;;;;;;;;;2.99;100.00;100811.20;105003;1264;66196;-54
2024/03/15 05:15:35;;;;;;;;;;;;;;;3.02;100.00;100812.55;105098;1269;72728;-56
2024/03/15 05:18:04;;;;;;;;;;;;;;;3.02;100.00;100809.11;105136;1269;60401;-55
2024/03/15 05:20:33;;;;;;;;;;;;;;;3.03;100.00;100815.70;105001;1267;60448;-54
2024/03/15 05:23:01;;;;;;;;;;;;;;;3.06;100.00;100808.26;105084;1264;72660;-54
2024/03/15 05:25:28;;;;;;;;;;;;;;;3.08;100.00;100809.97;104990;1264;66792;-54
2024/03/15 05:27:55;;;;;;;;;;;;;;;3.11;100.00;100811.10;104997;1267;72745;-55
2024/03/15 05:30:23;;;;;;;;;;;;;;;3.14;100.00;100810.21;105742;1251;61229;-55
2024/03/15 05:32:51;;;;;;;;;;;;;;;3.16;100.00;100812.39;105851;1251;60533;-54
2024/03/15 05:35:20;;;;;;;;;;;;;;;3.19;100.00;100811.75;105781;1251;73812;-54
2024/03/15 05:37:48;;;;;;;;;;;;;;;3.19;100.00;100814.48;105826;1256;64970;-54
2024/03/15 05:40:17;;;;;;;;;;;;;;;3.22;100.00;100808.05;105865;1256;72710;-56
2024/03/15 05:42:45;;;;;;;;;;;;;;;3.25;100.00;100802.25;105787;1253;60476;-55
2024/03/15 05:45:13;;;;;;;;;;;;;;;3.29;100.00;100806.75;105801;1257;60436;-55
2024/03/15 05:55:08;;;;;;;;;;;;;;;3.38;100.00;100824.23;102648;1300;599401;-54
2024/03/15 05:57:36;;;;;;;;;;;;;;;3.40;100.00;100822.06;105316;1260;61563;-56
2024/03/15 06:00:11;;;;;;;;;;;;;;;3.41;100.00;100819.38;105433;1257;59857;-56
2024/03/15 06:02:43;;;;;;;;;;;;;;;3.42;100.00;100818.98;105392;1263;73652;-55
2024/03/15 06:05:11;;;;;;;;;;;;;;;3.42;100.00;100817.43;105419;1263;67233;-55
2024/03/15 06:07:39;;;;;;;;;;;;;;;3.42;100.00;100813.28;105365;1257;221248;-59
2024/03/15 06:10:07;;;;;;;;;;;;;;;3.41;100.00;100807.85;105669;1259;60849;-56
2024/03/15 06:12:35;;;;;;;;;;;;;;;3.44;100.00;100813.33;105456;1254;59612;-55
2024/03/15 06:15:03;;;;;;;;;;;;;;;3.46;100.00;100809.41;105708;1254;73071;-56
2024/03/15 06:17:31;;;;;;;;;;;;;;;3.47;100.00;100812.01;105709;1261;65269;-54
2024/03/15 06:19:59;;;;;;;;;;;;;;;3.49;100.00;100808.23;105990;1257;72684;-60
2024/03/15 06:22:26;;;;;;;;;;;;;;;3.52;100.00;100805.10;105433;1259;59662;-54
2024/03/15 06:24:57;;;;;;;;;;;;;;;3.56;100.00;100806.52;105691;1254;60416;-54
2024/03/15 06:27:25;;;;;;;;;;;;;;;3.59;100.00;100804.52;105576;1254;73912;-54
2024/03/15 06:37:22;;;;;;;;;;;;;;;3.74;100.00;100804.64;102419;1292;599081;-54
2024/03/15 06:40:17;;;;;;;;;;;;;;;3.76;100.00;100807.13;104804;1269;63396;-54
2024/03/15 06:43:09;;;;;;;;;;;;;;;3.81;100.00;100808.06;104836;1269;62720;-54
2024/03/15 06:45:52;;;;;;;;;;;;;;;3.85;100.00;100809.63;104931;1267;75555;-55
2024/03/15 06:48:22;;;;;;;;;;;;;;;3.89;100.00;100801.57;104783;1268;70352;-55
2024/03/15 06:52:31;;;;;;;;;;;;;;;4.00;100.00;100804.97;105062;1264;226440;-55
2024/03/15 06:53:38;;;;;;;;;;;;;;;4.11;100.00;100810.60;104912;1267;60671;-55
2024/03/15 06:56:06;;;;;;;;;;;;;;;4.17;100.00;100806.15;105022;1267;61046;-55
2024/03/15 06:58:36;;;;;;;;;;;;;;;4.23;100.00;100807.33;104964;1262;75838;-54
2024/03/15 07:01:06;;;;;;;;;;;;;;;4.32;100.00;100812.30;105038;1269;68824;-55
2024/03/15 07:03:34;;;;;;;;;;;;;;;4.37;100.00;100812.67;105036;1264;72517;-54
2024/03/15 07:06:02;;;;;;;;;;;;;;;4.43;100.00;100810.14;105155;1261;60526;-54
2024/03/15 07:08:29;;;;;;;;;;;;;;;4.48;100.00;100803.88;105242;1261;61504;-54
2024/03/15 07:10:58;;;;;;;;;;;;;;;4.53;100.00;100796.89;106037;1253;76076;-55
2024/03/15 07:13:26;;;;;;;;;;;;;;;4.58;100.00;100801.31;105988;1256;69837;-54
2024/03/15 07:15:55;;;;;;;;;;;;;;;4.60;100.00;100800.25;105882;1256;74453;-54
2024/03/15 07:18:24;;;;;;;;;;;;;;;4.60;100.00;100794.19;105966;1256;63243;-54
2024/03/15 07:20:56;;;;;;;;;;;;;;;4.60;100.00;100798.33;105828;1253;60833;-54
2024/03/15 07:23:27;;;;;;;;;;;;;;;4.58;100.00;100792.13;105867;1251;77778;-54
2024/03/15 07:25:55;;;;;;;;;;;;;;;4.57;100.00;100790.33;105796;1251;67811;-53
2024/03/15 07:28:25;;;;;;;;;;;;;;;4.61;100.00;100797.07;105869;1254;75431;-54
2024/03/15 07:30:54;;;;;;;;;;;;;;;4.62;100.00;100791.45;105984;1254;64163;-54
2024/03/15 07:33:23;;;;;;;;;;;;;;;4.63;100.00;100785.88;105739;1257;61067;-55
2024/03/15 07:35:58;;;;;;;;;;;;;;;4.67;100.00;100787.60;105933;1251;76975;-55
2024/03/15 07:38:26;;;;;;;;;;;;;;;4.74;100.00;100788.91;105766;1257;69238;-55
2024/03/15 07:40:54;;;;;;;;;;;;;;;4.80;100.00;100788.24;105665;1256;74335;-58
2024/03/15 07:43:26;;;;;;;;;;;;;;;4.86;100.00;100791.16;105662;1251;62851;-55
2024/03/15 07:45:54;;;;;;;;;;;;;;;4.91;100.00;100791.39;106001;1256;61673;-55
2024/03/15 07:48:22;;;;;;;;;;;;;;;4.93;100.00;100788.47;105876;1254;76592;-55
2024/03/15 07:50:51;;;;;;;;;;;;;;;4.93;100.00;100784.50;106221;1257;70510;-57
2024/03/15 07:53:19;;;;;;;;;;;;;;;4.99;100.00;100785.02;105808;1251;76089;-56
2024/03/15 07:55:47;;;;;;;;;;;;;;;5.06;100.00;100787.31;105714;1254;60871;-56
2024/03/15 07:58:17;;;;;;;;;;;;;;;5.08;100.00;100777.50;105903;1257;60492;-55
2024/03/15 08:00:45;;;;;;;;;;;;;;;5.08;100.00;100777.45;105890;1251;77481;-55
2024/03/15 08:03:13;;;;;;;;;;;;;;;5.05;100.00;100774.83;105955;1251;69315;-56
2024/03/15 08:05:40;;;;;;;;;;;;;;;5.03;100.00;100769.15;105842;1251;74301;-56
2024/03/15 08:08:08;;;;;;;;;;;;;;;5.02;100.00;100776.86;105703;1251;62063;-54
2024/03/15 08:10:36;;;;;;;;;;;;;;;5.00;100.00;100770.42;105810;1256;61290;-55
2024/03/15 08:13:04;;;;;;;;;;;;;;;5.01;100.00;100761.41;105845;1253;76356;-58
2024/03/15 08:15:36;;;;;;;;;;;;;;;5.06;100.00;100761.50;105915;1256;68147;-55
2024/03/15 08:18:05;;;;;;;;;;;;;;;5.14;100.00;100762.48;105612;1257;77048;-55
2024/03/15 08:20:33;;;;;;;;;;;;;;;5.22;100.00;100760.75;105835;1256;61910;-54
2024/03/15 08:23:02;;;;;;;;;;;;;;;5.28;100.00;100758.68;105905;1253;62606;-58
2024/03/15 08:25:36;;;;;;;;;;;;;;;5.29;100.00;100764.63;105670;1257;78055;-55
2024/03/15 08:28:04;;;;;;;;;;;;;;;5.28;100.00;100767.47;105595;1256;68314;-55
2024/03/15 08:30:32;;;;;;;;;;;;;;;5.26;100.00;100767.30;105745;1254;76112;-55
2024/03/15 08:33:02;;;;;;;;;;;;;;;5.26;100.00;100767.98;105831;1259;62508;-55
2024/03/15 08:35:30;;;;;;;;;;;;;;;5.25;100.00;100771.52;105778;1254;61345;-55
2024/03/15 08:37:58;;;;;;;;;;;;;;;5.23;100.00;100773.13;105732;1254;75637;-55
2024/03/15 08:40:26;;;;;;;;;;;;;;;5.20;100.00;100772.16;105764;1253;69281;-55
2024/03/15 08:42:54;;;;;;;;;;;;;;;5.19;100.00;100770.65;105778;1258;74899;-55
2024/03/15 08:45:29;;;;;;;;;;;;;;;5.19;100.00;100770.02;105797;1257;62168;-56
2024/03/15 08:47:58;;;;;;;;;;;;;;;5.17;100.00;100769.15;105824;1254;62468;-55
2024/03/15 08:50:32;;;;;;;;;;;;;;;5.16;100.00;100768.90;105669;1258;76352;-55
2024/03/15 08:53:03;;;;;;;;;;;;;;;5.17;100.00;100769.52;105718;1259;70458;-58
2024/03/15 08:55:31;;;;;;;;;;;;;;;5.17;100.00;100768.64;105829;1257;76262;-54
2024/03/15 08:57:59;;;;;;;;;;;;;;;5.15;100.00;100762.78;105856;1253;60345;-55
2024/03/15 09:00:27;;;;;;;;;;;;;;;5.13;100.00;100763.57;105810;1254;62317;-55
2024/03/15 09:02:56;;;;;;;;;;;;;;;5.13;100.00;100761.91;105733;1259;77313;-55
2024/03/15 09:05:24;;;;;;;;;;;;;;;5.13;100.00;100761.34;105924;1254;69628;-56
2024/03/15 09:07:52;;;;;;;;;;;;;;;5.19;100.00;100762.45;105824;1259;74179;-55
2024/03/15 09:10:19;;;;;;;;;;;;;;;5.22;100.00;100759.20;105709;1257;60920;-56
2024/03/15 09:12:48;;;;;;;;;;;;;;;5.23;100.00;100758.77;105774;1254;62635;-55
2024/03/15 09:15:20;;;;;;;;;;;;;;;5.22;100.00;100752.37;105783;1257;76350;-56
2024/03/15 09:17:49;;;;;;;;;;;;;;;5.21;100.00;100751.77;105697;1257;69411;-55
2024/03/15 09:22:48;;;;;;;;;;;;;;;5.20;100.00;100746.01;105887;1256;61942;-55
2024/03/15 09:25:22;;;;;;;;;;;;;;;5.19;100.00;100744.30;105887;1251;62846;-55
2024/03/15 09:27:52;;;;;;;;;;;;;;;5.22;100.00;100738.88;105856;1256;76326;-54
2024/03/15 09:30:29;;;;;;;;;;;;;;;5.26;100.00;100739.04;105817;1251;69299;-54
2024/03/15 09:32:57;;;;;;;;;;;;;;;5.29;100.00;100736.04;105915;1257;75321;-55
2024/03/15 09:35:25;;;;;;;;;;;;;;;5.30;100.00;100733.20;106288;1254;63720;-55
2024/03/15 09:37:53;;;;;;;;;;;;;;;5.31;100.00;100731.86;105874;1256;61508;-55
2024/03/15 09:40:27;;;;;;;;;;;;;;;5.36;100.00;100734.16;105959;1256;76606;-55
2024/03/15 09:42:56;;;;;;;;;;;;;;;5.44;100.00;100734.70;106121;1256;69306;-59
2024/03/15 09:45:26;;;;;;;;;;;;;;;5.51;100.00;100733.55;105816;1257;73887;-55
2024/03/15 09:47:54;;;;;;;;;;;;;;;5.54;100.00;100734.60;105865;1251;63583;-55
2024/03/15 09:50:29;;;;;;;;;;;;;;;5.58;100.00;100728.29;105839;1256;61735;-56
2024/03/15 09:52:57;;;;;;;;;;;;;;;5.61;100.00;100726.42;105927;1256;76117;-56
2024/03/15 09:55:27;;;;;;;;;;;;;;;5.63;100.00;100729.04;105710;1257;67916;-55
2024/03/15 09:57:54;;;;;;;;;;;;;;;5.63;100.00;100726.09;105920;1257;75398;-55
2024/03/15 10:11:26;;;;;;;22.10;12.20;;;;;;;5.92;100.00;100718.77;103280;1283;613701;-55
2024/03/15 10:13:56;;;;;;;22.60;11.00;;;;;;;6.01;100.00;100723.45;104923;1267;135396;-56
2024/03/15 10:16:24;;;;;;;21.60;11.60;;;;;;;5.96;100.00;100722.05;105027;1263;63889;-54
2024/03/15 10:18:52;;;;;;;25.20;12.00;;;;;;;5.88;100.00;100724.45;105381;1264;74533;-54
2024/03/15 10:21:20;;;;;;;23.10;12.50;;;;;;;5.81;100.00;100719.43;104997;1264;68719;-58
2024/03/15 10:23:48;;;;;;;19.20;10.20;;;;;;;5.77;100.00;100713.44;105079;1264;76748;-55
2024/03/15 10:26:32;;;;;;;22.60;11.10;;;;;;;5.73;100.00;100711.56;104769;1269;61638;-56
2024/03/15 10:28:59;;;;;;;23.80;10.40;;;;;;;5.67;100.00;100708.63;105119;1266;61292;-54
2024/03/15 10:31:27;;;;;;;20.20;10.80;;;;;;;5.63;100.00;100713.88;104774;1264;75579;-55
2024/03/15 10:33:55;;;;;;;19.10;11.60;;;;;;;5.59;100.00;100713.30;104856;1266;69279;-58
2024/03/15 10:36:22;;;;;;;24.20;10.80;;;;;;;5.55;100.00;100713.67;104736;1264;75240;-55
2024/03/15 10:38:52;;;;;;;25.20;10.70;;;;;;;5.53;100.00;100711.96;105346;1262;62327;-56
2024/03/15 10:41:20;;;;;;;18.00;10.10;;;;;;;5.54;100.00;100709.95;105402;1258;63348;-56
2024/03/15 10:43:49;;;;;;;29.30;10.50;;;;;;;5.58;100.00;100710.80;105283;1257;76318;-55
2024/03/15 10:46:16;;;;;;;21.70;10.80;;;;;;;5.66;100.00;100713.27;105353;1257;69646;-56
2024/03/15 10:48:44;;;;;;;20.40;10.00;;;;;;;5.68;100.00;100710.96;105608;1254;76968;-55
2024/03/15 10:51:12;;;;;;;29.30;10.00;;;;;;;5.70;100.00;100717.89;105437;1254;63354;-55
2024/03/15 10:53:40;;;;;;;14.50;9.10;;;;;;;5.71;100.00;100717.29;105694;1255;61351;-56
2024/03/15 10:56:09;;;;;;;23.30;11.00;;;;;;;5.69;100.00;100716.39;105354;1254;74214;-55
2024/03/15 10:58:37;;;;;;;22.10;10.40;;;;;;;5.69;100.00;100719.66;105697;1254;69940;-58
2024/03/15 11:01:05;;;;;;;25.10;10.90;;;;;;;5.67;100.00;100719.15;105585;1254;74683;-53
2024/03/15 11:03:33;;;;;;;21.40;10.10;;;;;;;5.63;100.00;100715.41;105495;1261;62887;-56
2024/03/15 11:06:02;;;;;;;18.20;10.10;;;;;;;5.60;100.00;100715.99;105687;1254;62481;-56
2024/03/15 11:08:39;;;;;;;17.60;8.50;;;;;;;5.58;100.00;100713.56;105759;1253;76383;-55
2024/03/15 11:11:07;;;;;;;22.90;10.10;;;;;;;5.56;100.00;100714.98;105832;1259;70534;-56
2024/03/15 11:13:36;;;;;;;24.00;10.50;;;;;;;5.53;100.00;100705.27;105793;1259;74721;-55
2024/03/15 11:16:27;;;;;;;24.20;8.70;;;;;;;5.52;100.00;100709.07;105611;1254;63441;-55
2024/03/15 11:19:04;;;;;;;21.20;9.10;;;;;;;5.53;100.00;100718.14;105886;1254;62819;-59
2024/03/15 11:21:33;;;;;;;24.40;8.60;;;;;;;5.51;100.00;100708.73;105756;1256;76329;-55
2024/03/15 11:24:06;;;;;;;26.00;9.20;;;;;;;5.48;100.00;100710.66;105695;1254;69614;-56
2024/03/15 11:26:34;;;;;;;19.00;8.50;;;;;;;5.45;100.00;100713.41;105872;1254;74247;-56
2024/03/15 11:29:02;;;;;;;22.50;9.00;;;;;;;5.43;100.00;100717.40;105901;1259;64797;-59
2024/03/15 11:31:32;;;;;;;16.60;7.70;;;;;;;5.41;100.00;100716.98;105608;1259;61606;-55
2024/03/15 11:34:00;;;;;;;17.10;8.60;;;;;;;5.41;100.00;100716.48;105663;1260;76393;-55
2024/03/15 11:36:28;;;;;;;18.10;8.00;;;;;;;5.40;100.00;100717.28;105438;1254;70615;-56
2024/03/15 11:38:57;;;;;;;19.50;7.70;;;;;;;5.41;100.00;100717.52;105670;1257;74218;-55
2024/03/15 11:41:25;;;;;;;16.60;7.90;;;;;;;5.42;100.00;100721.91;105658;1254;61680;-56
2024/03/15 11:43:53;;;;;;;20.20;7.80;;;;;;;5.43;100.00;100723.41;105789;1254;62692;-55
2024/03/15 11:46:22;;;;;;;20.50;8.60;;;;;;;5.42;100.00;100725.55;105636;1257;76448;-55
2024/03/15 11:48:50;;;;;;;24.20;8.20;;;;;;;5.41;100.00;100726.13;105668;1254;69488;-54
2024/03/15 11:51:19;;;;;;;18.40;8.50;;;;;;;5.42;100.00;100726.79;105626;1254;75271;-56
2024/03/15 11:53:47;;;;;;;27.50;8.30;;;;;;;5.39;100.00;100727.52;105532;1259;61209;-54
2024/03/15 11:56:15;;;;;;;17.00;7.60;;;;;;;5.35;100.00;100723.38;105632;1254;62850;-54
2024/03/15 11:58:42;;;;;;;18.30;7.80;;;;;;;5.32;100.00;100725.53;105597;1256;76433;-54
2024/03/15 12:01:10;;;;;;;19.10;7.30;;;;;;;5.32;100.00;100728.83;105589;1259;69292;-55
2024/03/15 12:03:38;;;;;;;18.80;8.50;;;;;;;5.32;100.00;100724.18;105796;1257;74110;-54
2024/03/15 12:06:08;;;;;;;14.00;7.20;;;;;;;5.34;100.00;100728.31;105734;1254;61731;-54
2024/03/15 12:08:36;;;;;;;18.10;7.80;;;;;;;5.36;100.00;100729.47;105809;1254;61505;-54
2024/03/15 12:11:04;;;;;;;16.80;7.30;;;;;;;5.37;100.00;100730.31;105838;1260;76351;-56
2024/03/15 12:13:31;;;;;;;18.90;7.60;;;;;;;5.36;100.00;100729.80;105228;1260;71372;-54
2024/03/15 12:16:00;;;;;;;15.50;7.40;;;;;;;5.36;100.00;100736.93;105737;1253;75448;-54
2024/03/15 12:18:29;;;;;;;20.30;9.90;;;;;;;5.34;100.00;100738.34;105708;1254;62568;-54
2024/03/15 12:20:57;;;;;;;19.10;7.60;;;;;;;5.34;100.00;100735.91;105821;1255;62845;-55
2024/03/15 12:23:24;;;;;;;18.10;8.50;;;;;;;5.34;100.00;100734.67;105890;1254;75318;-56
2024/03/15 12:25:52;;;;;;;18.30;8.00;;;;;;;5.32;100.00;100736.04;105529;1253;69058;-54
2024/03/15 12:28:21;;;;;;;17.80;8.00;;;;;;;5.32;100.00;100730.90;105688;1254;74084;-54
2024/03/15 12:30:51;;;;;;;22.40;7.90;;;;;;;5.32;100.00;100729.16;105590;1255;62309;-54
2024/03/15 12:33:19;;;;;;;16.50;7.40;;;;;;;5.32;100.00;100726.41;105676;1254;62536;-54
2024/03/15 12:35:49;;;;;;;17.20;7.40;;;;;;;5.30;100.00;100724.89;105527;1257;76677;-55
2024/03/15 12:38:23;;;;;;;17.00;8.00;;;;;;;5.32;100.00;100725.05;105714;1253;69295;-56
2024/03/15 12:40:52;;;;;;;19.50;7.40;;;;;;;5.35;100.00;100721.19;105715;1254;73842;-53
2024/03/15 12:43:20;;;;;;;15.30;8.10;;;;;;;5.35;100.00;100716.31;105822;1253;61776;-58
2024/03/15 12:45:48;;;;;;;15.70;7.90;;;;;;;5.36;100.00;100717.26;105675;1254;61985;-54
2024/03/15 12:48:19;;;;;;;21.20;8.50;;;;;;;5.38;100.00;100717.10;105648;1257;76369;-54
2024/03/15 12:50:46;;;;;;;26.90;10.00;;;;;;;5.40;100.00;100718.15;105577;1254;69496;-54